Time;durP1;ratioP1;P1;durP2;ratioP2;P2;SDS_P1;SDS_P2;PMS_P1;PMS_P2;Temp;Humidity;BMP_temperature;BMP_pressure;BME280_temperature;BME280_humidity;BME280_pressure;Samples;Min_cycle;Max_cycle;Signal;HPM_P1;HPM_P2
2024/03/17 00:02:20;;;;;;;;;;;;;;;;;;5008533;28;19917;-63
2024/03/17 00:04:45;;;;;;;;;;;;;;;;;;5009505;28;19925;-63
2024/03/17 00:07:11;;;;;;;;;;;;;;;;;;5011131;28;19920;-64
2024/03/17 00:09:37;;;;;;;;;;;;;;;;;;5007615;28;19964;-62
2024/03/17 00:12:03;;;;;;;;;;;;;;;;;;5009952;28;19914;-62
2024/03/17 00:14:29;;;;;;;;;;;;;;;;;;5009902;28;19914;-64
2024/03/17 00:16:55;;;;;;;;;;;;;;;;;;5012273;28;19946;-65
2024/03/17 00:19:24;;;;;;;;;;;;;;;;;;5010195;28;19941;-64
2024/03/17 00:21:53;;;;;;;;;;;;;;;;;;5015666;28;19939;-65
2024/03/17 00:24:19;;;;;;;;;;;;;;;;;;5011762;28;21263;-64
2024/03/17 00:26:45;;;;;;;;;;;;;;;;;;5013320;28;19940;-63
2024/03/17 00:29:11;;;;;;;;;;;;;;;;;;5011019;28;19913;-64
2024/03/17 00:31:37;;;;;;;;;;;;;;;;;;5012505;28;19913;-63
2024/03/17 00:34:03;;;;;;;;;;;;;;;;;;5016761;28;19909;-63
2024/03/17 00:36:30;;;;;;;;;;;;;;;;;;5011766;28;20465;-63
2024/03/17 00:38:56;;;;;;;;;;;;;;;;;;5011886;28;19913;-65
2024/03/17 00:41:23;;;;;;;;;;;;;;;;;;5012687;28;19920;-64
2024/03/17 00:43:49;;;;;;;;;;;;;;;;;;5011844;28;20033;-65
2024/03/17 00:46:15;;;;;;;;;;;;;;;;;;5012895;28;19929;-63
2024/03/17 00:48:40;;;;;;;;;;;;;;;;;;5008374;28;20414;-64
2024/03/17 00:51:06;;;;;;;;;;;;;;;;;;5013508;28;19920;-63
2024/03/17 00:53:32;;;;;;;;;;;;;;;;;;5016563;28;19917;-60
2024/03/17 00:55:59;;;;;;;;;;;;;;;;;;5012726;28;19917;-61
2024/03/17 00:58:25;;;;;;;;;;;;;;;;;;5012218;28;19920;-63
2024/03/17 01:00:51;;;;;;;;;;;;;;;;;;5013998;28;20000;-61
2024/03/17 01:03:17;;;;;;;;;;;;;;;;;;5014900;28;19914;-63
2024/03/17 01:05:44;;;;;;;;;;;;;;;;;;5014295;28;19960;-63
2024/03/17 01:08:10;;;;;;;;;;;;;;;;;;5013310;28;20256;-63
2024/03/17 01:10:36;;;;;;;;;;;;;;;;;;5010254;28;19914;-63
2024/03/17 01:13:02;;;;;;;;;;;;;;;;;;5015983;28;19914;-63
2024/03/17 01:15:28;;;;;;;;;;;;;;;;;;5013957;28;19917;-63
2024/03/17 01:17:53;;;;;;;;;;;;;;;;;;5014054;28;19974;-61
2024/03/17 01:20:19;;;;;;;;;;;;;;;;;;5011368;28;19913;-62
2024/03/17 01:22:45;;;;;;;;;;;;;;;;;;5016252;28;19914;-61
2024/03/17 01:25:11;;;;;;;;;;;;;;;;;;5011311;28;19918;-63
2024/03/17 01:27:37;;;;;;;;;;;;;;;;;;5011340;28;19993;-63
2024/03/17 01:30:03;;;;;;;;;;;;;;;;;;5010263;28;19917;-66
2024/03/17 01:32:29;;;;;;;;;;;;;;;;;;5014642;28;20497;-64
2024/03/17 01:34:55;;;;;;;;;;;;;;;;;;5014554;28;20334;-64
2024/03/17 01:37:21;;;;;;;;;;;;;;;;;;5014274;28;19924;-64
2024/03/17 01:39:49;;;;;;;;;;;;;;;;;;5011762;28;20271;-64
2024/03/17 01:42:15;;;;;;;;;;;;;;;;;;5012622;28;20017;-65
2024/03/17 01:44:41;;;;;;;;;;;;;;;;;;5013632;28;20000;-65
2024/03/17 01:47:08;;;;;;;;;;;;;;;;;;5012136;28;19936;-65
2024/03/17 01:49:34;;;;;;;;;;;;;;;;;;5011975;28;19988;-62
2024/03/17 01:52:00;;;;;;;;;;;;;;;;;;5011528;28;19956;-65
2024/03/17 01:54:26;;;;;;;;;;;;;;;;;;5011612;28;19913;-64
2024/03/17 01:56:52;;;;;;;;;;;;;;;;;;5012212;28;19913;-62
2024/03/17 01:59:18;;;;;;;;;;;;;;;;;;5015757;28;20312;-63
2024/03/17 02:01:44;;;;;;;;;;;;;;;;;;5012516;28;19920;-63
2024/03/17 02:04:11;;;;;;;;;;;;;;;;;;5013334;28;19937;-62
2024/03/17 02:06:37;;;;;;;;;;;;;;;;;;5012126;28;19913;-64
2024/03/17 02:09:03;;;;;;;;;;;;;;;;;;5014709;28;19913;-62
2024/03/17 02:11:29;;;;;;;;;;;;;;;;;;5011080;28;20004;-64
2024/03/17 02:13:55;;;;;;;;;;;;;;;;;;5013227;28;19920;-64
2024/03/17 02:16:21;;;;;;;;;;;;;;;;;;5016161;28;19916;-64
2024/03/17 02:18:47;;;;;;;;;;;;;;;;;;5012471;28;19917;-62
2024/03/17 02:21:12;;;;;;;;;;;;;;;;;;5011229;28;19910;-61
2024/03/17 02:23:38;;;;;;;;;;;;;;;;;;5011031;28;20394;-63
2024/03/17 02:26:04;;;;;;;;;;;;;;;;;;5009560;28;19913;-64
2024/03/17 02:28:30;;;;;;;;;;;;;;;;;;5013765;28;19909;-63
2024/03/17 02:30:56;;;;;;;;;;;;;;;;;;5011328;28;19960;-64
2024/03/17 02:33:22;;;;;;;;;;;;;;;;;;5008855;28;20334;-63
2024/03/17 02:35:48;;;;;;;;;;;;;;;;;;5009725;28;19921;-64
2024/03/17 02:39:30;;;;;;;;;;;;;;;;;;5011159;28;19920;-65
2024/03/17 02:41:00;;;;;;;;;;;;;;;;;;5007226;28;20527;-61
2024/03/17 02:43:26;;;;;;;;;;;;;;;;;;5014292;28;19913;-64
2024/03/17 02:45:52;;;;;;;;;;;;;;;;;;5010738;28;19996;-63
2024/03/17 02:48:18;;;;;;;;;;;;;;;;;;5011164;28;20020;-62
2024/03/17 02:50:44;;;;;;;;;;;;;;;;;;5010138;28;19920;-64
2024/03/17 02:53:09;;;;;;;;;;;;;;;;;;5011247;28;20008;-65
2024/03/17 02:55:35;;;;;;;;;;;;;;;;;;5011560;28;20021;-63
2024/03/17 02:58:01;;;;;;;;;;;;;;;;;;5010293;28;19921;-66
2024/03/17 03:00:27;;;;;;;;;;;;;;;;;;5010667;28;20269;-61
2024/03/17 03:02:53;;;;;;;;;;;;;;;;;;5011203;28;19959;-62
2024/03/17 03:05:19;;;;;;;;;;;;;;;;;;5010753;28;19933;-63
2024/03/17 03:07:45;;;;;;;;;;;;;;;;;;5011041;28;19913;-61
2024/03/17 03:10:10;;;;;;;;;;;;;;;;;;5009113;28;20291;-64
2024/03/17 03:12:36;;;;;;;;;;;;;;;;;;5011089;28;19914;-62
2024/03/17 03:15:02;;;;;;;;;;;;;;;;;;5011031;28;19913;-64
2024/03/17 03:17:28;;;;;;;;;;;;;;;;;;5011426;28;19922;-64
2024/03/17 03:19:55;;;;;;;;;;;;;;;;;;5009839;28;20375;-63
2024/03/17 03:22:21;;;;;;;;;;;;;;;;;;5007087;28;19917;-63
2024/03/17 03:24:47;;;;;;;;;;;;;;;;;;5009294;28;19921;-64
2024/03/17 03:27:13;;;;;;;;;;;;;;;;;;5009996;28;20288;-64
2024/03/17 03:29:39;;;;;;;;;;;;;;;;;;5009848;28;19914;-64
2024/03/17 03:32:05;;;;;;;;;;;;;;;;;;5009373;28;19967;-63
2024/03/17 03:34:31;;;;;;;;;;;;;;;;;;5011081;28;19913;-62
2024/03/17 03:36:56;;;;;;;;;;;;;;;;;;5010762;28;19924;-64
2024/03/17 03:39:23;;;;;;;;;;;;;;;;;;5008067;28;19920;-63
2024/03/17 03:41:49;;;;;;;;;;;;;;;;;;5009686;28;19917;-64
2024/03/17 03:44:15;;;;;;;;;;;;;;;;;;5009494;28;20289;-64
2024/03/17 03:46:41;;;;;;;;;;;;;;;;;;5009902;28;19913;-62
2024/03/17 03:49:08;;;;;;;;;;;;;;;;;;5009215;28;20386;-63
2024/03/17 03:51:34;;;;;;;;;;;;;;;;;;5012884;28;20411;-61
2024/03/17 03:53:59;;;;;;;;;;;;;;;;;;5011864;28;19909;-62
2024/03/17 03:56:25;;;;;;;;;;;;;;;;;;5014269;28;20436;-62
2024/03/17 03:58:51;;;;;;;;;;;;;;;;;;5013837;28;19910;-63
2024/03/17 04:01:21;;;;;;;;;;;;;;;;;;5012759;28;19968;-64
2024/03/17 04:03:47;;;;;;;;;;;;;;;;;;5012743;28;19964;-63
2024/03/17 04:06:15;;;;;;;;;;;;;;;;;;5014196;28;19952;-64
2024/03/17 04:08:41;;;;;;;;;;;;;;;;;;5013741;28;20188;-64
2024/03/17 04:11:07;;;;;;;;;;;;;;;;;;5012829;28;19952;-63
2024/03/17 04:13:33;;;;;;;;;;;;;;;;;;5013139;28;19913;-64
2024/03/17 04:15:59;;;;;;;;;;;;;;;;;;5013453;28;19951;-64
2024/03/17 04:18:25;;;;;;;;;;;;;;;;;;5015259;28;20445;-64
2024/03/17 04:20:51;;;;;;;;;;;;;;;;;;5020736;28;19918;-62
2024/03/17 04:23:17;;;;;;;;;;;;;;;;;;5011825;28;20110;-65
2024/03/17 04:25:43;;;;;;;;;;;;;;;;;;5018611;28;19918;-65
2024/03/17 04:28:09;;;;;;;;;;;;;;;;;;5011121;28;20295;-63
2024/03/17 04:30:35;;;;;;;;;;;;;;;;;;5024915;28;19914;-64
2024/03/17 04:33:01;;;;;;;;;;;;;;;;;;5012622;28;19981;-63
2024/03/17 04:35:27;;;;;;;;;;;;;;;;;;5013026;28;20001;-64
2024/03/17 04:37:53;;;;;;;;;;;;;;;;;;5011996;28;19925;-65
2024/03/17 04:40:19;;;;;;;;;;;;;;;;;;5015031;28;20355;-64
2024/03/17 04:42:45;;;;;;;;;;;;;;;;;;5016159;28;19956;-64
2024/03/17 04:45:10;;;;;;;;;;;;;;;;;;5014855;28;19982;-63
2024/03/17 04:47:36;;;;;;;;;;;;;;;;;;5011904;28;19921;-64
2024/03/17 04:50:04;;;;;;;;;;;;;;;;;;5011909;28;19917;-62
2024/03/17 04:52:29;;;;;;;;;;;;;;;;;;5017166;28;20066;-64
2024/03/17 04:54:55;;;;;;;;;;;;;;;;;;5015652;28;19998;-64
2024/03/17 04:57:21;;;;;;;;;;;;;;;;;;5017340;28;19917;-65
2024/03/17 04:59:47;;;;;;;;;;;;;;;;;;5014503;28;19913;-62
2024/03/17 05:02:13;;;;;;;;;;;;;;;;;;5011939;28;19914;-63
2024/03/17 05:04:39;;;;;;;;;;;;;;;;;;5012185;28;20022;-63
2024/03/17 05:07:05;;;;;;;;;;;;;;;;;;5015889;28;20064;-64
2024/03/17 05:09:31;;;;;;;;;;;;;;;;;;5011588;28;20423;-63
2024/03/17 05:11:57;;;;;;;;;;;;;;;;;;5015635;28;20372;-65
2024/03/17 05:14:23;;;;;;;;;;;;;;;;;;5011960;28;19921;-64
2024/03/17 05:16:49;;;;;;;;;;;;;;;;;;5010542;28;19968;-64
2024/03/17 05:19:17;;;;;;;;;;;;;;;;;;5014630;28;19924;-64
2024/03/17 05:21:43;;;;;;;;;;;;;;;;;;5012714;28;19913;-64
2024/03/17 05:24:09;;;;;;;;;;;;;;;;;;5012285;28;20025;-62
2024/03/17 05:26:34;;;;;;;;;;;;;;;;;;5014236;28;19913;-63
2024/03/17 05:29:00;;;;;;;;;;;;;;;;;;5013878;28;20020;-63
2024/03/17 05:31:27;;;;;;;;;;;;;;;;;;5011976;28;19914;-63
2024/03/17 05:33:53;;;;;;;;;;;;;;;;;;5013020;28;19982;-65
2024/03/17 05:36:21;;;;;;;;;;;;;;;;;;5011830;28;19917;-64
2024/03/17 05:38:47;;;;;;;;;;;;;;;;;;5011668;28;19956;-64
2024/03/17 05:41:14;;;;;;;;;;;;;;;;;;5015889;28;19921;-64
2024/03/17 05:43:40;;;;;;;;;;;;;;;;;;5012231;28;19917;-66
2024/03/17 05:46:09;;;;;;;;;;;;;;;;;;5011061;28;20004;-64
2024/03/17 05:48:37;;;;;;;;;;;;;;;;;;5012905;28;19971;-65
2024/03/17 05:51:03;;;;;;;;;;;;;;;;;;5016061;28;20375;-64
2024/03/17 05:53:31;;;;;;;;;;;;;;;;;;5011347;28;19921;-63
2024/03/17 05:55:57;;;;;;;;;;;;;;;;;;5014578;28;20051;-61
2024/03/17 05:58:23;;;;;;;;;;;;;;;;;;5012231;28;19960;-63
2024/03/17 06:00:49;;;;;;;;;;;;;;;;;;5010224;28;19917;-63
2024/03/17 06:03:15;;;;;;;;;;;;;;;;;;5012181;28;20426;-60
2024/03/17 06:05:41;;;;;;;;;;;;;;;;;;5012430;28;19952;-63
2024/03/17 06:08:11;;;;;;;;;;;;;;;;;;5012151;28;19956;-64
2024/03/17 06:10:37;;;;;;;;;;;;;;;;;;5009761;28;19921;-64
2024/03/17 06:13:02;;;;;;;;;;;;;;;;;;5010726;28;20352;-64
2024/03/17 06:15:28;;;;;;;;;;;;;;;;;;5012412;28;20091;-63
2024/03/17 06:17:54;;;;;;;;;;;;;;;;;;5012314;28;19921;-64
2024/03/17 06:20:20;;;;;;;;;;;;;;;;;;5012826;28;19997;-63
2024/03/17 06:22:46;;;;;;;;;;;;;;;;;;5010376;28;19920;-63
2024/03/17 06:25:12;;;;;;;;;;;;;;;;;;5012839;28;19924;-62
2024/03/17 06:27:38;;;;;;;;;;;;;;;;;;5011130;28;19929;-64
2024/03/17 06:30:04;;;;;;;;;;;;;;;;;;5008959;28;19917;-61
2024/03/17 06:32:31;;;;;;;;;;;;;;;;;;5012613;28;19925;-63
2024/03/17 06:34:57;;;;;;;;;;;;;;;;;;5013065;28;19918;-65
2024/03/17 06:37:23;;;;;;;;;;;;;;;;;;5010966;28;19921;-65
2024/03/17 06:39:49;;;;;;;;;;;;;;;;;;5010307;28;19921;-63
2024/03/17 06:42:15;;;;;;;;;;;;;;;;;;5011060;28;20020;-64
2024/03/17 06:44:41;;;;;;;;;;;;;;;;;;5006808;28;20012;-62
2024/03/17 06:47:07;;;;;;;;;;;;;;;;;;5013268;28;20115;-63
2024/03/17 06:49:33;;;;;;;;;;;;;;;;;;5011301;28;19917;-62
2024/03/17 06:51:58;;;;;;;;;;;;;;;;;;5016079;28;19963;-64
2024/03/17 06:54:24;;;;;;;;;;;;;;;;;;5010338;28;19910;-63
2024/03/17 06:56:51;;;;;;;;;;;;;;;;;;5014141;28;19921;-64
2024/03/17 06:59:17;;;;;;;;;;;;;;;;;;5010529;28;20387;-64
2024/03/17 07:01:44;;;;;;;;;;;;;;;;;;5015602;28;19918;-65
2024/03/17 07:04:10;;;;;;;;;;;;;;;;;;5016388;28;19923;-63
2024/03/17 07:06:36;;;;;;;;;;;;;;;;;;5012559;28;19928;-62
2024/03/17 07:09:02;;;;;;;;;;;;;;;;;;5009609;28;19997;-63
2024/03/17 07:11:28;;;;;;;;;;;;;;;;;;5011867;28;19917;-64
2024/03/17 07:13:54;;;;;;;;;;;;;;;;;;5010496;28;20398;-64
2024/03/17 07:16:21;;;;;;;;;;;;;;;;;;5010474;28;19944;-65
2024/03/17 07:18:48;;;;;;;;;;;;;;;;;;5014112;28;19913;-64
2024/03/17 07:21:14;;;;;;;;;;;;;;;;;;5014481;28;19920;-65
2024/03/17 07:23:41;;;;;;;;;;;;;;;;;;5011404;28;19917;-63
2024/03/17 07:26:07;;;;;;;;;;;;;;;;;;5010347;28;19914;-64
2024/03/17 07:28:33;;;;;;;;;;;;;;;;;;5017625;28;19967;-64
2024/03/17 07:31:02;;;;;;;;;;;;;;;;;;5013099;28;19934;-63
2024/03/17 07:33:28;;;;;;;;;;;;;;;;;;5013019;28;20225;-63
2024/03/17 07:35:54;;;;;;;;;;;;;;;;;;5014115;28;19917;-63
2024/03/17 07:38:20;;;;;;;;;;;;;;;;;;5015018;28;19917;-65
2024/03/17 07:40:46;;;;;;;;;;;;;;;;;;5013846;28;20298;-64
2024/03/17 07:43:12;;;;;;;;;;;;;;;;;;5018122;28;19920;-64
2024/03/17 07:45:38;;;;;;;;;;;;;;;;;;5013666;28;20635;-65
2024/03/17 07:48:04;;;;;;;;;;;;;;;;;;5018101;28;19989;-62
2024/03/17 07:50:30;;;;;;;;;;;;;;;;;;5012847;28;19913;-63
2024/03/17 07:52:56;;;;;;;;;;;;;;;;;;5015018;28;20379;-64
2024/03/17 07:55:21;;;;;;;;;;;;;;;;;;5013298;28;19940;-65
2024/03/17 07:57:47;;;;;;;;;;;;;;;;;;5016507;28;19931;-64
2024/03/17 08:00:16;;;;;;;;;;;;;;;;;;5013791;28;19960;-64
2024/03/17 08:02:42;;;;;;;;;;;;;;;;;;5015605;28;19920;-67
2024/03/17 08:05:08;;;;;;;;;;;;;;;;;;5014786;28;19951;-64
2024/03/17 08:07:34;;;;;;;;;;;;;;;;;;5016252;28;20395;-64
2024/03/17 08:09:59;;;;;;;;;;;;;;;;;;5016203;28;19917;-64
2024/03/17 08:12:25;;;;;;;;;;;;;;;;;;5015660;28;19913;-64
2024/03/17 08:14:51;;;;;;;;;;;;;;;;;;5011603;28;20376;-65
2024/03/17 08:17:17;;;;;;;;;;;;;;;;;;5011771;28;19921;-63
2024/03/17 08:19:43;;;;;;;;;;;;;;;;;;5013080;28;19918;-65
2024/03/17 08:22:09;;;;;;;;;;;;;;;;;;5014721;28;19983;-65
2024/03/17 08:24:35;;;;;;;;;;;;;;;;;;5013219;28;19928;-65
2024/03/17 08:27:01;;;;;;;;;;;;;;;;;;5013434;28;20305;-65
2024/03/17 08:29:26;;;;;;;;;;;;;;;;;;5014424;28;19914;-59
2024/03/17 08:31:53;;;;;;;;;;;;;;;;;;5017758;28;19964;-63
2024/03/17 08:34:19;;;;;;;;;;;;;;;;;;5012489;28;19925;-64
2024/03/17 08:36:44;;;;;;;;;;;;;;;;;;5017556;28;20315;-63
2024/03/17 08:39:11;;;;;;;;;;;;;;;;;;5011161;28;19920;-64
2024/03/17 08:41:37;;;;;;;;;;;;;;;;;;5014983;28;20029;-63
2024/03/17 08:44:03;;;;;;;;;;;;;;;;;;5014916;28;20436;-61
2024/03/17 08:46:28;;;;;;;;;;;;;;;;;;5012991;28;19937;-61
2024/03/17 08:48:54;;;;;;;;;;;;;;;;;;5013947;28;19952;-62
2024/03/17 08:51:20;;;;;;;;;;;;;;;;;;5014537;28;19918;-62
2024/03/17 08:53:46;;;;;;;;;;;;;;;;;;5013203;28;19913;-63
2024/03/17 08:56:12;;;;;;;;;;;;;;;;;;5016666;28;19983;-64
2024/03/17 08:58:38;;;;;;;;;;;;;;;;;;5017637;28;19921;-64
2024/03/17 09:01:05;;;;;;;;;;;;;;;;;;5013081;28;20020;-64
2024/03/17 09:03:31;;;;;;;;;;;;;;;;;;5013596;28;20379;-63
2024/03/17 09:05:57;;;;;;;;;;;;;;;;;;5016608;28;19920;-64
2024/03/17 09:08:23;;;;;;;;;;;;;;;;;;5011622;28;19960;-62
2024/03/17 09:10:48;;;;;;;;;;;;;;;;;;5013932;28;19917;-63
2024/03/17 09:13:17;;;;;;;;;;;;;;;;;;5014984;28;19920;-62
2024/03/17 09:15:43;;;;;;;;;;;;;;;;;;5014797;28;19913;-63
2024/03/17 09:18:09;;;;;;;;;;;;;;;;;;5014592;28;19929;-62
2024/03/17 09:20:35;;;;;;;;;;;;;;;;;;5011634;28;19924;-61
2024/03/17 09:23:01;;;;;;;;;;;;;;;;;;5018348;28;20003;-64
2024/03/17 09:25:27;;;;;;;;;;;;;;;;;;5012636;28;19917;-63
2024/03/17 09:27:52;;;;;;;;;;;;;;;;;;5011501;28;20576;-61
2024/03/17 09:30:19;;;;;;;;;;;;;;;;;;5008576;28;20392;-61
2024/03/17 09:32:45;;;;;;;;;;;;;;;;;;5015181;28;19988;-61
2024/03/17 09:35:11;;;;;;;;;;;;;;;;;;5016357;28;19956;-65
2024/03/17 09:37:37;;;;;;;;;;;;;;;;;;5010302;28;19945;-67
2024/03/17 09:40:06;;;;;;;;;;;;;;;;;;5016809;28;20484;-64
2024/03/17 09:42:32;;;;;;;;;;;;;;;;;;5014337;28;19909;-63
2024/03/17 09:44:58;;;;;;;;;;;;;;;;;;5011362;28;20013;-63
2024/03/17 09:47:24;;;;;;;;;;;;;;;;;;5013183;28;19960;-64
2024/03/17 09:49:50;;;;;;;;;;;;;;;;;;5011175;28;19913;-64
2024/03/17 09:52:16;;;;;;;;;;;;;;;;;;5012357;28;19914;-62
2024/03/17 09:54:41;;;;;;;;;;;;;;;;;;5026515;28;19917;-64
2024/03/17 09:57:07;;;;;;;;;;;;;;;;;;5014503;28;19922;-63
2024/03/17 09:59:33;;;;;;;;;;;;;;;;;;5010671;28;19918;-66
2024/03/17 10:01:59;;;;;;;;;;;;;;;;;;5012695;28;20465;-64
2024/03/17 10:04:25;;;;;;;;;;;;;;;;;;5020458;28;19913;-65
2024/03/17 10:06:51;;;;;;;;;;;;;;;;;;5013262;28;19914;-64
2024/03/17 10:09:21;;;;;;;;;;;;;;;;;;5010273;28;19913;-65
2024/03/17 10:11:46;;;;;;;;;;;;;;;;;;5011771;28;20318;-65
2024/03/17 10:14:12;;;;;;;;;;;;;;;;;;5011910;28;19940;-65
2024/03/17 10:16:38;;;;;;;;;;;;;;;;;;5011510;28;19940;-65
2024/03/17 10:19:04;;;;;;;;;;;;;;;;;;5011066;28;19910;-66
2024/03/17 10:21:30;;;;;;;;;;;;;;;;;;5014003;28;20458;-64
2024/03/17 10:23:56;;;;;;;;;;;;;;;;;;5012833;28;19917;-64
2024/03/17 10:26:22;;;;;;;;;;;;;;;;;;5015989;28;19921;-65
2024/03/17 10:28:49;;;;;;;;;;;;;;;;;;5013269;28;19909;-65
2024/03/17 10:31:14;;;;;;;;;;;;;;;;;;5011273;28;19917;-62
2024/03/17 10:33:42;;;;;;;;;;;;;;;;;;5015366;28;19910;-64
2024/03/17 10:36:08;;;;;;;;;;;;;;;;;;5010002;28;19972;-62
2024/03/17 10:38:34;;;;;;;;;;;;;;;;;;5011399;28;19917;-64
2024/03/17 10:41:00;;;;;;;;;;;;;;;;;;5013185;28;19988;-64
2024/03/17 10:43:26;;;;;;;;;;;;;;;;;;5011878;28;19957;-65
2024/03/17 10:45:54;;;;;;;;;;;;;;;;;;5013364;28;19917;-64
2024/03/17 10:48:21;;;;;;;;;;;;;;;;;;5010272;28;20517;-64
2024/03/17 10:50:48;;;;;;;;;;;;;;;;;;5013058;28;19914;-64
2024/03/17 10:53:14;;;;;;;;;;;;;;;;;;5013561;28;19914;-63
2024/03/17 10:55:40;;;;;;;;;;;;;;;;;;5010594;28;20627;-64
2024/03/17 10:58:06;;;;;;;;;;;;;;;;;;5011392;28;20016;-65
2024/03/17 11:00:32;;;;;;;;;;;;;;;;;;5011321;28;20040;-63
2024/03/17 11:02:58;;;;;;;;;;;;;;;;;;5005297;28;20402;-64
2024/03/17 11:05:24;;;;;;;;;;;;;;;;;;5010913;28;20008;-64
2024/03/17 11:07:50;;;;;;;;;;;;;;;;;;5010092;28;19929;-65
2024/03/17 11:10:16;;;;;;;;;;;;;;;;;;5011611;28;19927;-64
2024/03/17 11:12:45;;;;;;;;;;;;;;;;;;5014790;28;19913;-64
2024/03/17 11:15:11;;;;;;;;;;;;;;;;;;5015550;28;19921;-63
2024/03/17 11:17:37;;;;;;;;;;;;;;;;;;5012073;28;20072;-64
2024/03/17 11:20:03;;;;;;;;;;;;;;;;;;5011354;28;19913;-64
2024/03/17 11:22:29;;;;;;;;;;;;;;;;;;5004197;28;19944;-59
2024/03/17 11:24:55;;;;;;;;;;;;;;;;;;5012209;28;20044;-64
2024/03/17 11:27:22;;;;;;;;;;;;;;;;;;5013077;28;19917;-62
2024/03/17 11:29:48;;;;;;;;;;;;;;;;;;5009119;28;19913;-64
2024/03/17 11:32:14;;;;;;;;;;;;;;;;;;5010615;28;19917;-64
2024/03/17 11:34:40;;;;;;;;;;;;;;;;;;5011479;28;19925;-63
2024/03/17 11:37:09;;;;;;;;;;;;;;;;;;5010204;28;19939;-61
2024/03/17 11:39:34;;;;;;;;;;;;;;;;;;5008701;28;19925;-63
2024/03/17 11:42:00;;;;;;;;;;;;;;;;;;5010252;28;20457;-64
2024/03/17 11:44:26;;;;;;;;;;;;;;;;;;5010574;28;19927;-59
2024/03/17 11:46:52;;;;;;;;;;;;;;;;;;5009387;28;19971;-64
2024/03/17 11:49:18;;;;;;;;;;;;;;;;;;5011409;28;19917;-61
2024/03/17 11:51:44;;;;;;;;;;;;;;;;;;5011590;28;19920;-63
2024/03/17 11:54:10;;;;;;;;;;;;;;;;;;5008398;28;19922;-62
2024/03/17 11:56:36;;;;;;;;;;;;;;;;;;5010982;28;20503;-61
2024/03/17 11:59:02;;;;;;;;;;;;;;;;;;5009059;28;19913;-62
2024/03/17 12:01:27;;;;;;;;;;;;;;;;;;5007523;28;20016;-64
2024/03/17 12:03:53;;;;;;;;;;;;;;;;;;5009017;28;19925;-61
2024/03/17 12:06:19;;;;;;;;;;;;;;;;;;5009844;28;20507;-61
2024/03/17 12:08:45;;;;;;;;;;;;;;;;;;5009347;28;19967;-62
2024/03/17 12:11:11;;;;;;;;;;;;;;;;;;5011804;28;19921;-63
2024/03/17 12:13:37;;;;;;;;;;;;;;;;;;5018535;28;19960;-64
2024/03/17 12:16:03;;;;;;;;;;;;;;;;;;5014724;28;19913;-63
2024/03/17 12:18:35;;;;;;;;;;;;;;;;;;5015851;28;20351;-63
2024/03/17 12:21:01;;;;;;;;;;;;;;;;;;5015839;28;19913;-63
2024/03/17 12:23:27;;;;;;;;;;;;;;;;;;5011410;28;20346;-64
2024/03/17 12:25:53;;;;;;;;;;;;;;;;;;5015937;28;19921;-62
2024/03/17 12:28:19;;;;;;;;;;;;;;;;;;5016455;28;19925;-61
2024/03/17 12:30:46;;;;;;;;;;;;;;;;;;5015884;28;19913;-63
2024/03/17 12:33:12;;;;;;;;;;;;;;;;;;5010186;28;19933;-62
2024/03/17 12:35:37;;;;;;;;;;;;;;;;;;5014963;28;19918;-61
2024/03/17 12:38:04;;;;;;;;;;;;;;;;;;5011325;28;19913;-63
2024/03/17 12:40:29;;;;;;;;;;;;;;;;;;5011684;28;19936;-63
2024/03/17 12:42:55;;;;;;;;;;;;;;;;;;5012832;28;20328;-62
2024/03/17 12:45:21;;;;;;;;;;;;;;;;;;5016275;28;19920;-61
2024/03/17 12:47:48;;;;;;;;;;;;;;;;;;5014969;28;19932;-61
2024/03/17 12:50:17;;;;;;;;;;;;;;;;;;5013156;28;20000;-61
2024/03/17 12:52:43;;;;;;;;;;;;;;;;;;5011590;28;19914;-61
2024/03/17 13:00:38;;;;;;;;;;;;;;;;;;5011060;28;19920;-63
2024/03/17 13:03:04;;;;;;;;;;;;;;;;;;5016162;28;20000;-63
2024/03/17 13:05:30;;;;;;;;;;;;;;;;;;5009503;28;19917;-63
2024/03/17 13:07:57;;;;;;;;;;;;;;;;;;5011627;28;20324;-62
2024/03/17 13:10:23;;;;;;;;;;;;;;;;;;5012995;28;19914;-63
2024/03/17 13:12:49;;;;;;;;;;;;;;;;;;5016569;28;19917;-63
2024/03/17 13:15:15;;;;;;;;;;;;;;;;;;5017477;28;19932;-61
2024/03/17 13:17:41;;;;;;;;;;;;;;;;;;5018298;28;19992;-62
2024/03/17 13:20:11;;;;;;;;;;;;;;;;;;5009556;28;20000;-59
2024/03/17 13:22:38;;;;;;;;;;;;;;;;;;5007010;28;19922;-59
2024/03/17 13:25:05;;;;;;;;;;;;;;;;;;5007404;28;19927;-59
2024/03/17 13:27:31;;;;;;;;;;;;;;;;;;5008358;28;20268;-59
2024/03/17 13:29:57;;;;;;;;;;;;;;;;;;5010270;28;19921;-57
2024/03/17 13:32:23;;;;;;;;;;;;;;;;;;5012000;28;19928;-57
2024/03/17 13:34:50;;;;;;;;;;;;;;;;;;5008645;28;20558;-59
2024/03/17 13:37:16;;;;;;;;;;;;;;;;;;5012426;28;19983;-58
2024/03/17 13:39:42;;;;;;;;;;;;;;;;;;5008923;28;19909;-60
2024/03/17 13:42:07;;;;;;;;;;;;;;;;;;5012734;28;19914;-59
2024/03/17 13:44:33;;;;;;;;;;;;;;;;;;5010294;28;20664;-60
2024/03/17 13:47:01;;;;;;;;;;;;;;;;;;5008818;28;20008;-59
2024/03/17 13:49:28;;;;;;;;;;;;;;;;;;5010694;28;19913;-58
2024/03/17 13:51:56;;;;;;;;;;;;;;;;;;5010938;28;20467;-58
2024/03/17 13:54:22;;;;;;;;;;;;;;;;;;5014910;28;19939;-59
2024/03/17 13:56:48;;;;;;;;;;;;;;;;;;5007937;28;19918;-60
2024/03/17 13:59:14;;;;;;;;;;;;;;;;;;5011812;28;19917;-61
2024/03/17 14:01:42;;;;;;;;;;;;;;;;;;5012291;28;19917;-59
2024/03/17 14:04:07;;;;;;;;;;;;;;;;;;5007195;28;20542;-59
2024/03/17 14:06:33;;;;;;;;;;;;;;;;;;5010190;28;19988;-60
2024/03/17 14:09:00;;;;;;;;;;;;;;;;;;5005771;28;19913;-60
2024/03/17 14:11:25;;;;;;;;;;;;;;;;;;5005929;28;19965;-58
2024/03/17 14:13:53;;;;;;;;;;;;;;;;;;5009759;28;20311;-59
2024/03/17 14:16:19;;;;;;;;;;;;;;;;;;5008154;28;19960;-60
2024/03/17 14:18:45;;;;;;;;;;;;;;;;;;5007780;28;20336;-59
2024/03/17 14:21:10;;;;;;;;;;;;;;;;;;5015706;28;19917;-59
2024/03/17 14:23:37;;;;;;;;;;;;;;;;;;5014177;28;19968;-59
2024/03/17 14:26:04;;;;;;;;;;;;;;;;;;5014371;28;20012;-61
2024/03/17 14:28:30;;;;;;;;;;;;;;;;;;5007352;28;19968;-60
2024/03/17 14:30:55;;;;;;;;;;;;;;;;;;5008529;28;19914;-58
2024/03/17 14:33:24;;;;;;;;;;;;;;;;;;5007112;28;19924;-59
2024/03/17 14:35:50;;;;;;;;;;;;;;;;;;5009786;28;20016;-59
2024/03/17 14:38:17;;;;;;;;;;;;;;;;;;5011017;28;20362;-60
2024/03/17 14:40:43;;;;;;;;;;;;;;;;;;5002327;28;19917;-58
2024/03/17 14:43:09;;;;;;;;;;;;;;;;;;5007694;28;20344;-58
2024/03/17 14:45:36;;;;;;;;;;;;;;;;;;5005660;28;20004;-58
2024/03/17 14:48:02;;;;;;;;;;;;;;;;;;5005901;28;20456;-60
2024/03/17 14:50:28;;;;;;;;;;;;;;;;;;5006789;28;19913;-59
2024/03/17 14:52:54;;;;;;;;;;;;;;;;;;5006895;28;19928;-59
2024/03/17 14:55:21;;;;;;;;;;;;;;;;;;5009468;28;19917;-58
2024/03/17 14:57:46;;;;;;;;;;;;;;;;;;5007935;28;19941;-58
2024/03/17 15:00:19;;;;;;;;;;;;;;;;;;5005337;28;20375;-59
2024/03/17 15:02:46;;;;;;;;;;;;;;;;;;5007077;28;19917;-59
2024/03/17 15:05:12;;;;;;;;;;;;;;;;;;5003222;28;20024;-60
2024/03/17 15:07:38;;;;;;;;;;;;;;;;;;5005446;28;19917;-60
2024/03/17 15:10:04;;;;;;;;;;;;;;;;;;5011500;28;20383;-58
2024/03/17 15:12:30;;;;;;;;;;;;;;;;;;5008466;28;19924;-59
2024/03/17 15:14:56;;;;;;;;;;;;;;;;;;5008663;28;19929;-57
2024/03/17 15:17:22;;;;;;;;;;;;;;;;;;5005977;28;19917;-57
2024/03/17 15:19:48;;;;;;;;;;;;;;;;;;5006733;28;20016;-56
2024/03/17 15:22:13;;;;;;;;;;;;;;;;;;5011455;28;19964;-58
2024/03/17 15:24:39;;;;;;;;;;;;;;;;;;5008102;28;19967;-58
2024/03/17 15:27:05;;;;;;;;;;;;;;;;;;5007201;28;19949;-58
2024/03/17 15:29:31;;;;;;;;;;;;;;;;;;5007545;28;20013;-56
2024/03/17 15:31:57;;;;;;;;;;;;;;;;;;5011175;28;19921;-59
2024/03/17 15:34:23;;;;;;;;;;;;;;;;;;5008633;28;19913;-58
2024/03/17 15:36:52;;;;;;;;;;;;;;;;;;5007528;28;20256;-59
2024/03/17 15:39:18;;;;;;;;;;;;;;;;;;5008158;28;19921;-57
2024/03/17 15:41:44;;;;;;;;;;;;;;;;;;5015621;28;20169;-58
2024/03/17 15:44:10;;;;;;;;;;;;;;;;;;5007668;28;19929;-57
2024/03/17 15:46:37;;;;;;;;;;;;;;;;;;5010594;28;20379;-58
2024/03/17 15:49:03;;;;;;;;;;;;;;;;;;5011125;28;19917;-56
2024/03/17 15:51:29;;;;;;;;;;;;;;;;;;5011545;28;19921;-58
2024/03/17 15:53:55;;;;;;;;;;;;;;;;;;5015059;28;19921;-59
2024/03/17 15:56:21;;;;;;;;;;;;;;;;;;5016388;28;20506;-59
2024/03/17 15:58:47;;;;;;;;;;;;;;;;;;5011388;28;19921;-58
2024/03/17 16:01:13;;;;;;;;;;;;;;;;;;5005805;28;20004;-58
2024/03/17 16:03:39;;;;;;;;;;;;;;;;;;5004213;28;19928;-57
2024/03/17 16:06:08;;;;;;;;;;;;;;;;;;5004704;28;19928;-58
2024/03/17 16:08:34;;;;;;;;;;;;;;;;;;5002240;28;19928;-58
2024/03/17 16:11:00;;;;;;;;;;;;;;;;;;5003241;28;19917;-59
2024/03/17 16:13:26;;;;;;;;;;;;;;;;;;5005056;28;19921;-57
2024/03/17 16:15:53;;;;;;;;;;;;;;;;;;5004084;28;19917;-60
2024/03/17 16:18:19;;;;;;;;;;;;;;;;;;5007487;28;20028;-57
2024/03/17 16:20:45;;;;;;;;;;;;;;;;;;5014488;28;20435;-58
2024/03/17 16:23:11;;;;;;;;;;;;;;;;;;5010864;28;20008;-60
2024/03/17 16:25:37;;;;;;;;;;;;;;;;;;5006422;28;20016;-59
2024/03/17 16:28:04;;;;;;;;;;;;;;;;;;5013026;28;19913;-59
2024/03/17 16:30:30;;;;;;;;;;;;;;;;;;5008861;28;19922;-60
2024/03/17 16:32:56;;;;;;;;;;;;;;;;;;5010230;28;19972;-58
2024/03/17 16:35:22;;;;;;;;;;;;;;;;;;5012177;28;19921;-60
2024/03/17 16:37:48;;;;;;;;;;;;;;;;;;5009079;28;19948;-59
2024/03/17 16:40:15;;;;;;;;;;;;;;;;;;5016418;28;20383;-58
2024/03/17 16:42:42;;;;;;;;;;;;;;;;;;5013433;28;19925;-60
2024/03/17 16:45:09;;;;;;;;;;;;;;;;;;5011032;28;19932;-60